Beebe, South Dakota
Current Conditions -  °F | °C
As of 9:53 AM on Thursday 29 Jan 2015 (Local Time) from KABR Reporting Station
Overcast Overcast  
Wind Chill: 17°   Ceiling: 1800
Heat Index: 29°   Visibility: 10mi
Dew Point: 22°   Wind: 17mph
Humidity: 75%   Direction: 350°N
Pressure: 30.44"   Gusts: NA
Location:  45.4755°N, 98.5387°W
Report Text: KABR 291553Z AUTO 35015KT 10SM OVC018 M02/M06 A3044 RMK AO2 PK WND 35026/1536 SLP326 T10171056
Loading
Personal Weather Stations






























Interactive Weather Map New forecast layout! Learn more

10-Day Weather Forecast

Advertisements
Track Severe Weather on mobile